Time;durP1;ratioP1;P1;durP2;ratioP2;P2;SDS_P1;SDS_P2;PMS_P1;PMS_P2;Temp;Humidity;BMP_temperature;BMP_pressure;BME280_temperature;BME280_humidity;BME280_pressure;Samples;Min_cycle;Max_cycle;Signal;HPM_P1;HPM_P2
2022/06/07 00:00:19;;;;;;;11.25;5.42;;;;;;;;;;341770;155;857173;-57
2022/06/07 00:01:21;;;;;;;10.38;5.39;;;;;;;;;;344384;151;858978;-57
2022/06/07 00:02:28;;;;;;;10.74;5.51;;;;;;;;;;347940;152;857209;-58
2022/06/07 00:03:29;;;;;;;8.69;5.48;;;;;;;;;;345546;151;857566;-59
2022/06/07 00:04:31;;;;;;;8.99;5.45;;;;;;;;;;347024;148;857226;-58
2022/06/07 00:05:33;;;;;;;16.16;5.88;;;;;;;;;;342885;154;859039;-58
2022/06/07 00:06:35;;;;;;;13.56;7.04;;;;;;;;;;344643;154;866202;-57
2022/06/07 00:07:36;;;;;;;8.40;5.68;;;;;;;;;;342782;155;864913;-58
2022/06/07 00:08:38;;;;;;;14.56;6.12;;;;;;;;;;345355;153;857271;-57
2022/06/07 00:09:39;;;;;;;10.66;5.65;;;;;;;;;;344801;154;865540;-58
2022/06/07 00:10:41;;;;;;;12.51;6.21;;;;;;;;;;343842;153;857269;-58
2022/06/07 00:11:42;;;;;;;10.22;5.49;;;;;;;;;;348347;152;857217;-58
2022/06/07 00:12:44;;;;;;;14.11;6.26;;;;;;;;;;347389;153;857281;-58
2022/06/07 00:13:46;;;;;;;10.59;6.30;;;;;;;;;;347230;152;859110;-58
2022/06/07 00:14:48;;;;;;;11.27;6.66;;;;;;;;;;348043;152;863803;-57
2022/06/07 00:15:49;;;;;;;13.55;6.11;;;;;;;;;;346826;153;859163;-57
2022/06/07 00:16:51;;;;;;;12.79;6.83;;;;;;;;;;348096;152;858743;-57
2022/06/07 00:17:53;;;;;;;18.79;6.79;;;;;;;;;;348393;154;859263;-58
2022/06/07 00:18:54;;;;;;;15.54;7.59;;;;;;;;;;347828;152;867046;-58
2022/06/07 00:19:56;;;;;;;22.51;8.16;;;;;;;;;;344518;146;857224;-58
2022/06/07 00:20:57;;;;;;;16.41;7.73;;;;;;;;;;338011;156;866348;-58
2022/06/07 00:22:00;;;;;;;16.33;8.50;;;;;;;;;;339889;156;860537;-58
2022/06/07 00:23:05;;;;;;;17.80;8.24;;;;;;;;;;337494;156;857330;-58
2022/06/07 00:24:06;;;;;;;21.42;9.15;;;;;;;;;;337714;156;865631;-58
2022/06/07 00:25:09;;;;;;;20.76;9.91;;;;;;;;;;339071;155;866054;-58
2022/06/07 00:26:11;;;;;;;21.02;9.58;;;;;;;;;;334080;158;865991;-57
2022/06/07 00:27:13;;;;;;;24.10;10.09;;;;;;;;;;338759;156;856744;-56
2022/06/07 00:28:14;;;;;;;29.41;10.58;;;;;;;;;;338897;157;864863;-57
2022/06/07 00:29:16;;;;;;;25.31;10.79;;;;;;;;;;332473;158;864873;-56
2022/06/07 00:30:18;;;;;;;25.80;10.93;;;;;;;;;;342035;154;858936;-56
2022/06/07 00:31:20;;;;;;;22.83;10.80;;;;;;;;;;348721;151;864733;-56
2022/06/07 00:32:22;;;;;;;21.79;9.79;;;;;;;;;;348633;151;857420;-57
2022/06/07 00:33:23;;;;;;;18.94;8.78;;;;;;;;;;349103;151;867595;-57
2022/06/07 00:34:25;;;;;;;24.86;10.46;;;;;;;;;;348654;153;857806;-57
2022/06/07 00:35:26;;;;;;;19.20;8.76;;;;;;;;;;348929;151;857318;-57
2022/06/07 00:36:28;;;;;;;20.63;8.95;;;;;;;;;;347732;151;867721;-59
2022/06/07 00:37:30;;;;;;;17.05;7.84;;;;;;;;;;348075;151;864449;-59
2022/06/07 00:38:32;;;;;;;18.42;8.61;;;;;;;;;;348943;151;857323;-57
2022/06/07 00:39:34;;;;;;;15.53;7.45;;;;;;;;;;348218;151;859537;-59
2022/06/07 00:40:36;;;;;;;18.28;7.77;;;;;;;;;;348295;151;858097;-58
2022/06/07 00:41:38;;;;;;;16.03;8.05;;;;;;;;;;348404;151;857504;-57
2022/06/07 00:42:39;;;;;;;18.94;8.26;;;;;;;;;;348962;153;858054;-58
2022/06/07 00:43:41;;;;;;;17.16;8.37;;;;;;;;;;347882;153;865005;-57
2022/06/07 00:44:44;;;;;;;19.35;8.08;;;;;;;;;;349330;151;857237;-58
2022/06/07 00:45:45;;;;;;;16.49;8.09;;;;;;;;;;349182;153;859377;-58
2022/06/07 00:46:48;;;;;;;17.74;7.63;;;;;;;;;;348811;151;859289;-58
2022/06/07 00:47:49;;;;;;;16.15;8.43;;;;;;;;;;347995;151;857790;-58
2022/06/07 00:48:51;;;;;;;14.48;8.09;;;;;;;;;;347693;153;857214;-58
2022/06/07 00:50:07;;;;;;;13.36;7.16;;;;;;;;;;348838;149;858281;-58
2022/06/07 00:51:10;;;;;;;13.08;7.34;;;;;;;;;;336428;158;868698;-59
2022/06/07 00:52:12;;;;;;;12.30;7.16;;;;;;;;;;340371;153;857907;-58
2022/06/07 00:53:21;;;;;;;12.66;7.26;;;;;;;;;;349158;151;864248;-58
2022/06/07 00:54:24;;;;;;;15.09;7.22;;;;;;;;;;348058;151;866303;-58
2022/06/07 00:55:26;;;;;;;14.02;7.39;;;;;;;;;;348844;153;857349;-57
2022/06/07 00:56:27;;;;;;;13.06;7.25;;;;;;;;;;348872;151;865221;-57
2022/06/07 00:57:29;;;;;;;14.55;7.82;;;;;;;;;;348748;151;866670;-57
2022/06/07 00:58:30;;;;;;;12.73;6.71;;;;;;;;;;347064;153;858073;-57
2022/06/07 00:59:32;;;;;;;14.21;7.89;;;;;;;;;;347065;153;858284;-58
2022/06/07 01:00:33;;;;;;;14.46;7.55;;;;;;;;;;347730;152;857465;-57
2022/06/07 01:01:35;;;;;;;12.05;7.81;;;;;;;;;;348582;151;866727;-58
2022/06/07 01:02:37;;;;;;;16.74;7.96;;;;;;;;;;349369;153;864958;-58
2022/06/07 01:03:38;;;;;;;16.93;7.78;;;;;;;;;;348576;151;857212;-58
2022/06/07 01:04:40;;;;;;;13.18;7.85;;;;;;;;;;347321;151;866480;-58
2022/06/07 01:05:42;;;;;;;17.79;7.94;;;;;;;;;;347346;151;859286;-58
2022/06/07 01:10:46;;;;;;;16.62;8.56;;;;;;;;;;347485;151;858718;-58
2022/06/07 01:11:48;;;;;;;14.45;7.64;;;;;;;;;;349154;151;857251;-58
2022/06/07 01:12:49;;;;;;;14.72;7.74;;;;;;;;;;347599;152;858590;-58
2022/06/07 01:13:51;;;;;;;18.46;8.34;;;;;;;;;;349260;151;857153;-58
2022/06/07 01:14:53;;;;;;;14.87;8.09;;;;;;;;;;348868;151;858930;-57
2022/06/07 01:15:56;;;;;;;15.39;8.15;;;;;;;;;;349008;151;858994;-57
2022/06/07 01:16:58;;;;;;;15.74;8.54;;;;;;;;;;347689;151;857868;-57
2022/06/07 01:18:00;;;;;;;16.37;8.24;;;;;;;;;;349536;152;858228;-58
2022/06/07 01:19:01;;;;;;;14.29;8.05;;;;;;;;;;349920;151;865152;-58
2022/06/07 01:20:03;;;;;;;14.56;8.24;;;;;;;;;;348409;151;864970;-58
2022/06/07 01:21:10;;;;;;;16.89;8.22;;;;;;;;;;350398;150;858971;-57
2022/06/07 01:22:12;;;;;;;18.83;8.66;;;;;;;;;;350858;150;857251;-58
2022/06/07 01:23:13;;;;;;;15.25;7.76;;;;;;;;;;350501;150;859604;-58
2022/06/07 01:24:15;;;;;;;14.45;8.13;;;;;;;;;;350067;150;858231;-57
2022/06/07 01:25:17;;;;;;;19.20;8.63;;;;;;;;;;351367;150;859233;-58
2022/06/07 01:26:19;;;;;;;15.13;8.09;;;;;;;;;;343807;154;857064;-58
2022/06/07 01:27:20;;;;;;;12.65;7.91;;;;;;;;;;344016;154;857152;-57
2022/06/07 01:28:22;;;;;;;12.80;8.07;;;;;;;;;;337284;158;864710;-58
2022/06/07 01:29:24;;;;;;;14.58;8.22;;;;;;;;;;341375;154;859527;-58
2022/06/07 01:30:26;;;;;;;13.96;7.98;;;;;;;;;;336083;157;864001;-58
2022/06/07 01:31:27;;;;;;;15.00;7.80;;;;;;;;;;338014;156;865117;-58
2022/06/07 01:32:29;;;;;;;15.41;8.19;;;;;;;;;;341435;153;858950;-58
2022/06/07 01:33:31;;;;;;;15.59;8.21;;;;;;;;;;343474;154;859163;-58
2022/06/07 01:34:32;;;;;;;14.06;7.95;;;;;;;;;;342538;152;857189;-57
2022/06/07 01:35:34;;;;;;;13.37;8.23;;;;;;;;;;338631;156;867540;-57
2022/06/07 01:36:36;;;;;;;12.69;7.82;;;;;;;;;;343655;150;865101;-57
2022/06/07 01:37:37;;;;;;;15.31;7.96;;;;;;;;;;349510;151;857220;-59
2022/06/07 01:38:40;;;;;;;12.24;7.99;;;;;;;;;;343929;153;865759;-59
2022/06/07 01:42:21;;;;;;;10.88;6.97;;;;;;;;;;343416;152;864834;-57
2022/06/07 01:43:23;;;;;;;14.77;7.92;;;;;;;;;;344066;154;857292;-57
2022/06/07 01:44:26;;;;;;;13.47;7.26;;;;;;;;;;343414;155;865874;-58
2022/06/07 01:45:28;;;;;;;13.46;7.84;;;;;;;;;;344925;153;864974;-58
2022/06/07 01:46:30;;;;;;;12.46;7.15;;;;;;;;;;342749;153;864902;-58
2022/06/07 01:47:32;;;;;;;14.11;7.31;;;;;;;;;;337831;156;859281;-58
2022/06/07 01:48:34;;;;;;;14.74;7.57;;;;;;;;;;338713;156;865818;-58
2022/06/07 01:49:35;;;;;;;14.26;7.71;;;;;;;;;;342791;153;857251;-58
2022/06/07 01:50:37;;;;;;;16.27;8.41;;;;;;;;;;343428;153;856147;-58
2022/06/07 01:51:39;;;;;;;15.76;6.86;;;;;;;;;;343802;153;858924;-58
2022/06/07 01:52:40;;;;;;;14.47;8.44;;;;;;;;;;343450;153;858911;-58
2022/06/07 01:53:42;;;;;;;12.75;8.21;;;;;;;;;;344345;153;865011;-57
2022/06/07 01:54:44;;;;;;;16.83;8.25;;;;;;;;;;342666;154;858652;-59
2022/06/07 01:55:45;;;;;;;17.17;8.46;;;;;;;;;;345067;153;864979;-58
2022/06/07 01:56:50;;;;;;;16.94;7.66;;;;;;;;;;341934;153;865432;-57
2022/06/07 01:57:51;;;;;;;18.88;8.86;;;;;;;;;;344122;153;859786;-57
2022/06/07 01:58:53;;;;;;;17.44;8.21;;;;;;;;;;342244;153;857317;-58
2022/06/07 01:59:55;;;;;;;17.56;8.29;;;;;;;;;;343855;153;864962;-57
2022/06/07 02:00:57;;;;;;;11.79;7.19;;;;;;;;;;343248;153;857219;-59
2022/06/07 02:01:59;;;;;;;15.05;7.67;;;;;;;;;;340794;153;864889;-60
2022/06/07 02:03:00;;;;;;;14.28;7.76;;;;;;;;;;343859;153;865660;-58
2022/06/07 02:04:02;;;;;;;13.99;7.61;;;;;;;;;;342761;154;861328;-58
2022/06/07 02:05:04;;;;;;;15.39;8.07;;;;;;;;;;345062;154;858067;-58
2022/06/07 02:06:07;;;;;;;13.45;7.52;;;;;;;;;;341340;153;857339;-59
2022/06/07 02:07:09;;;;;;;15.16;7.81;;;;;;;;;;342858;154;857751;-58
2022/06/07 02:08:11;;;;;;;14.54;8.18;;;;;;;;;;343871;153;857958;-57
2022/06/07 02:21:19;;;;;;;13.32;7.91;;;;;;;12.73;63.84;100025.69;371359;142;880466;-58
2022/06/07 02:22:21;;;;;;;14.79;7.97;;;;;;;12.68;64.15;100030.95;359293;147;858007;-58
2022/06/07 02:23:24;;;;;;;12.81;7.73;;;;;;;12.68;64.15;100030.95;359279;147;857217;-58
2022/06/07 02:24:26;;;;;;;17.09;8.45;;;;;;;12.73;64.19;100030.05;360106;148;857244;-59
2022/06/07 02:25:28;;;;;;;17.19;7.64;;;;;;;12.75;64.43;100033.48;360346;148;858923;-58
2022/06/07 02:26:33;;;;;;;15.60;8.35;;;;;;;12.80;64.78;100029.91;360746;148;857557;-59
2022/06/07 02:27:35;;;;;;;15.82;8.35;;;;;;;12.87;64.93;100033.28;356482;147;857193;-59
2022/06/07 02:28:38;;;;;;;19.60;8.07;;;;;;;12.93;64.84;100032.31;360551;147;865963;-58
2022/06/07 02:29:44;;;;;;;15.11;8.17;;;;;;;12.97;64.96;100032.25;360073;148;857255;-57
2022/06/07 02:30:46;;;;;;;15.26;7.89;;;;;;;13.08;65.18;100029.45;359176;148;859896;-58
2022/06/07 02:31:50;;;;;;;13.09;7.79;;;;;;;13.22;64.82;100029.23;359256;147;865853;-58
2022/06/07 02:32:52;;;;;;;13.92;7.69;;;;;;;13.34;64.73;100027.30;358917;148;857147;-58
2022/06/07 02:33:54;;;;;;;14.28;7.73;;;;;;;13.46;64.82;100032.30;359926;148;864965;-57
2022/06/07 02:34:57;;;;;;;17.24;7.89;;;;;;;13.56;64.74;100027.80;359731;147;859722;-58
2022/06/07 02:35:59;;;;;;;16.40;7.91;;;;;;;13.61;64.00;100031.17;360150;147;865381;-58
2022/06/07 02:37:02;;;;;;;13.91;7.26;;;;;;;13.59;63.81;100027.73;360296;147;859332;-57
2022/06/07 02:38:05;;;;;;;13.41;7.46;;;;;;;13.62;64.08;100029.41;360677;148;864934;-58
2022/06/07 02:39:07;;;;;;;14.73;7.19;;;;;;;13.67;63.81;100035.38;360921;147;857244;-58
2022/06/07 02:40:10;;;;;;;15.38;7.86;;;;;;;13.70;63.32;100030.11;361232;148;857308;-57
2022/06/07 02:41:15;;;;;;;14.92;7.65;;;;;;;13.73;62.87;100033.53;361216;147;857773;-58
2022/06/07 02:42:16;;;;;;;12.45;7.49;;;;;;;;;;358494;148;856768;-60
2022/06/07 02:43:18;;;;;;;10.88;6.69;;;;;;;;;;360225;147;859412;-58
2022/06/07 02:44:20;;;;;;;12.85;7.29;;;;;;;;;;360433;148;864902;-58
2022/06/07 02:45:21;;;;;;;14.11;7.02;;;;;;;;;;353610;150;857818;-59
2022/06/07 02:46:23;;;;;;;11.09;7.07;;;;;;;;;;349958;151;859129;-57
2022/06/07 02:47:25;;;;;;;11.78;6.91;;;;;;;;;;359106;147;857478;-58
2022/06/07 02:48:27;;;;;;;16.50;7.69;;;;;;;;;;359304;148;857245;-57
2022/06/07 02:49:28;;;;;;;12.74;7.53;;;;;;;;;;359764;148;859587;-58
2022/06/07 02:50:30;;;;;;;15.36;7.39;;;;;;;;;;357903;148;865051;-58
2022/06/07 02:51:32;;;;;;;14.25;8.10;;;;;;;;;;361183;148;857341;-58
2022/06/07 02:52:34;;;;;;;11.11;7.10;;;;;;;;;;358645;148;866112;-58
2022/06/07 02:53:35;;;;;;;16.45;8.70;;;;;;;;;;359334;147;857243;-58
2022/06/07 02:54:37;;;;;;;15.20;8.65;;;;;;;;;;358494;148;857179;-58
2022/06/07 02:55:39;;;;;;;22.62;8.49;;;;;;;;;;359663;148;860525;-58
2022/06/07 02:56:40;;;;;;;12.23;7.99;;;;;;;;;;358857;148;864384;-58
2022/06/07 02:57:42;;;;;;;14.75;6.87;;;;;;;;;;360927;147;866782;-60
2022/06/07 02:58:44;;;;;;;13.18;8.43;;;;;;;;;;359458;148;859119;-60
2022/06/07 02:59:45;;;;;;;15.43;7.75;;;;;;;;;;358339;148;857315;-60
2022/06/07 03:00:47;;;;;;;14.70;7.69;;;;;;;;;;360375;148;857241;-58
2022/06/07 03:01:49;;;;;;;12.66;7.56;;;;;;;;;;360366;148;865397;-58
2022/06/07 03:02:51;;;;;;;12.83;7.31;;;;;;;;;;360429;147;857215;-57
2022/06/07 03:03:52;;;;;;;12.35;7.44;;;;;;;;;;360032;148;857283;-58
2022/06/07 03:04:54;;;;;;;11.27;6.95;;;;;;;;;;360395;147;859344;-58
2022/06/07 03:05:56;;;;;;;14.08;7.12;;;;;;;;;;358777;147;866176;-58
2022/06/07 03:06:57;;;;;;;12.89;6.83;;;;;;;;;;359924;147;864875;-57
2022/06/07 03:07:59;;;;;;;17.66;7.08;;;;;;;;;;358902;148;856099;-57
2022/06/07 03:09:00;;;;;;;11.75;6.95;;;;;;;;;;359873;148;856690;-57
2022/06/07 03:10:02;;;;;;;11.44;6.99;;;;;;;;;;361180;148;863796;-58
2022/06/07 03:11:04;;;;;;;11.09;6.79;;;;;;;;;;359198;148;856398;-57
2022/06/07 03:12:05;;;;;;;9.79;7.04;;;;;;;;;;359968;148;864603;-58
2022/06/07 03:13:07;;;;;;;12.69;6.99;;;;;;;;;;358826;147;856336;-57
2022/06/07 03:14:10;;;;;;;11.39;7.52;;;;;;;;;;358722;146;856367;-56
2022/06/07 03:15:11;;;;;;;15.99;7.89;;;;;;;;;;359060;147;857658;-58
2022/06/07 03:16:14;;;;;;;12.95;7.61;;;;;;;;;;359690;148;863944;-57
2022/06/07 03:17:16;;;;;;;12.33;7.14;;;;;;;;;;361321;148;864474;-58
2022/06/07 03:18:18;;;;;;;13.48;7.61;;;;;;;;;;360127;148;866688;-57
2022/06/07 03:19:19;;;;;;;15.76;7.94;;;;;;;;;;360910;148;865989;-57
2022/06/07 03:20:21;;;;;;;12.01;7.56;;;;;;;;;;359342;148;857267;-57
2022/06/07 03:21:22;;;;;;;16.94;8.22;;;;;;;;;;357643;148;867183;-57
2022/06/07 03:22:24;;;;;;;12.27;7.17;;;;;;;;;;357189;148;859015;-57
2022/06/07 03:23:25;;;;;;;16.33;7.83;;;;;;;;;;358139;148;856296;-58
2022/06/07 03:24:27;;;;;;;16.99;8.61;;;;;;;;;;358752;147;856135;-58
2022/06/07 03:25:29;;;;;;;17.91;8.21;;;;;;;;;;358141;148;863804;-57
2022/06/07 03:26:30;;;;;;;15.10;7.86;;;;;;;;;;358535;150;863777;-58
2022/06/07 03:27:32;;;;;;;15.74;7.95;;;;;;;;;;359353;147;857284;-58
2022/06/07 03:28:34;;;;;;;12.25;7.44;;;;;;;;;;359066;149;857016;-58
2022/06/07 03:29:37;;;;;;;12.79;7.43;;;;;;;;;;357932;150;859902;-58
2022/06/07 03:30:39;;;;;;;15.95;7.53;;;;;;;;;;357826;150;860156;-58
2022/06/07 03:31:41;;;;;;;13.19;7.31;;;;;;;;;;357466;150;867153;-57
2022/06/07 03:32:42;;;;;;;13.05;7.86;;;;;;;;;;357282;150;857198;-58
2022/06/07 03:33:44;;;;;;;14.74;7.09;;;;;;;;;;358064;148;858126;-58
2022/06/07 03:34:46;;;;;;;14.28;8.35;;;;;;;;;;358347;149;857215;-57
2022/06/07 03:35:48;;;;;;;12.85;8.33;;;;;;;;;;357240;147;857131;-58
2022/06/07 03:36:50;;;;;;;14.49;8.65;;;;;;;;;;358435;149;858906;-58
2022/06/07 03:37:51;;;;;;;13.59;8.46;;;;;;;;;;356043;150;867574;-57
2022/06/07 03:38:55;;;;;;;12.15;7.94;;;;;;;;;;357431;150;857212;-57
2022/06/07 03:39:57;;;;;;;13.88;8.79;;;;;;;;;;356470;150;857255;-58
2022/06/07 03:40:58;;;;;;;14.29;8.68;;;;;;;;;;357792;149;857621;-58
2022/06/07 03:42:01;;;;;;;13.71;8.54;;;;;;;;;;357699;148;858877;-57
2022/06/07 03:43:03;;;;;;;12.30;8.13;;;;;;;;;;358209;148;865213;-58
2022/06/07 03:44:05;;;;;;;11.88;7.67;;;;;;;;;;358190;149;857239;-58
2022/06/07 03:45:07;;;;;;;13.41;8.06;;;;;;;;;;358521;149;859048;-60
2022/06/07 03:46:12;;;;;;;13.55;8.12;;;;;;;;;;358933;147;865365;-58
2022/06/07 03:47:15;;;;;;;11.43;7.98;;;;;;;;;;356532;148;858004;-57
2022/06/07 03:48:17;;;;;;;15.35;8.42;;;;;;;;;;358298;149;857456;-59
2022/06/07 03:49:18;;;;;;;13.89;7.21;;;;;;;;;;352346;150;864964;-58
2022/06/07 03:50:20;;;;;;;17.23;7.99;;;;;;;;;;352018;150;866712;-56
2022/06/07 03:51:22;;;;;;;16.10;7.64;;;;;;;;;;357871;150;857081;-57
2022/06/07 03:52:24;;;;;;;15.32;7.61;;;;;;;;;;357513;150;856541;-55
2022/06/07 03:53:25;;;;;;;14.02;8.04;;;;;;;;;;358126;149;857183;-58
2022/06/07 03:54:27;;;;;;;13.79;8.09;;;;;;;;;;358059;147;856450;-56
2022/06/07 03:55:34;;;;;;;12.50;7.79;;;;;;;;;;357725;150;856923;-56
2022/06/07 03:56:37;;;;;;;13.24;8.23;;;;;;;;;;351337;149;857693;-58
2022/06/07 03:57:38;;;;;;;14.41;7.96;;;;;;;;;;353939;149;857174;-57
2022/06/07 03:58:40;;;;;;;18.98;7.72;;;;;;;;;;351528;152;859408;-56
2022/06/07 03:59:42;;;;;;;16.34;7.80;;;;;;;;;;349336;147;863874;-56
2022/06/07 04:00:44;;;;;;;13.71;7.54;;;;;;;;;;355889;147;857679;-57
2022/06/07 04:01:45;;;;;;;14.14;7.69;;;;;;;;;;358228;149;859807;-57
2022/06/07 04:02:48;;;;;;;13.88;7.21;;;;;;;;;;357527;149;864867;-57
2022/06/07 04:03:50;;;;;;;14.01;7.69;;;;;;;;;;357477;150;866451;-56
2022/06/07 04:04:51;;;;;;;12.57;7.41;;;;;;;;;;357949;149;857732;-56
2022/06/07 04:05:53;;;;;;;12.09;7.47;;;;;;;;;;356626;150;857341;-56
2022/06/07 04:08:15;;;;;;;12.83;7.62;;;;;;;;;;357671;148;865066;-55
2022/06/07 04:09:16;;;;;;;14.43;7.49;;;;;;;;;;354766;150;857323;-54
2022/06/07 04:10:18;;;;;;;11.65;7.38;;;;;;;;;;357007;147;865765;-55
2022/06/07 04:11:20;;;;;;;13.58;7.55;;;;;;;;;;356667;149;864928;-54
2022/06/07 04:12:22;;;;;;;11.27;7.25;;;;;;;;;;356230;149;857996;-55
2022/06/07 04:13:25;;;;;;;12.50;7.11;;;;;;;;;;356587;147;857218;-56
2022/06/07 04:14:26;;;;;;;13.65;7.62;;;;;;;;;;356932;147;867574;-56
2022/06/07 04:15:28;;;;;;;12.85;7.32;;;;;;;;;;358331;149;865303;-55
2022/06/07 04:16:30;;;;;;;12.96;7.19;;;;;;;;;;356910;147;857152;-56
2022/06/07 04:17:31;;;;;;;14.33;7.54;;;;;;;;;;356464;149;858801;-57
2022/06/07 04:18:33;;;;;;;11.81;7.58;;;;;;;;;;356686;148;859194;-57
2022/06/07 04:19:35;;;;;;;12.66;8.15;;;;;;;;;;357154;147;864954;-56
2022/06/07 04:20:37;;;;;;;11.96;7.26;;;;;;;;;;356351;150;858987;-56
2022/06/07 04:21:39;;;;;;;11.29;7.15;;;;;;;;;;357670;148;859190;-56
2022/06/07 04:22:40;;;;;;;10.11;7.44;;;;;;;;;;358222;147;864944;-58
2022/06/07 04:23:42;;;;;;;13.14;7.29;;;;;;;;;;358573;148;866008;-55
2022/06/07 04:24:44;;;;;;;14.74;7.33;;;;;;;;;;359853;148;858664;-57
2022/06/07 04:25:45;;;;;;;12.96;6.58;;;;;;;;;;360964;148;864917;-56
2022/06/07 04:26:47;;;;;;;10.79;7.48;;;;;;;;;;360397;148;858904;-56
2022/06/07 04:27:49;;;;;;;12.40;7.55;;;;;;;;;;353498;151;858598;-55
2022/06/07 04:28:51;;;;;;;11.78;7.38;;;;;;;;;;360480;148;858946;-57
2022/06/07 04:29:52;;;;;;;11.44;7.64;;;;;;;;;;358411;148;865110;-57
2022/06/07 04:30:54;;;;;;;12.21;7.36;;;;;;;;;;360686;147;858960;-57
2022/06/07 04:31:56;;;;;;;10.47;7.46;;;;;;;;;;360759;148;860218;-53
2022/06/07 04:32:57;;;;;;;14.27;7.80;;;;;;;;;;360042;148;857246;-55
2022/06/07 04:33:59;;;;;;;11.96;7.82;;;;;;;;;;360506;148;857232;-58
2022/06/07 04:35:00;;;;;;;11.10;7.50;;;;;;;;;;359052;147;857320;-54
2022/06/07 04:36:03;;;;;;;10.96;6.71;;;;;;;;;;358456;147;857280;-53
2022/06/07 04:37:05;;;;;;;13.99;7.29;;;;;;;;;;361145;148;856386;-56
2022/06/07 04:38:08;;;;;;;19.39;7.75;;;;;;;;;;359045;148;856351;-56
2022/06/07 04:39:09;;;;;;;13.29;7.38;;;;;;;;;;360994;148;856492;-57
2022/06/07 04:40:11;;;;;;;10.21;6.89;;;;;;;;;;360083;148;856583;-57
2022/06/07 04:41:15;;;;;;;13.70;7.70;;;;;;;;;;359188;148;856304;-56
2022/06/07 04:42:17;;;;;;;10.66;6.86;;;;;;;;;;358070;148;864088;-59
2022/06/07 04:43:18;;;;;;;10.71;6.28;;;;;;;;;;359304;147;856520;-56
2022/06/07 04:44:20;;;;;;;12.19;6.47;;;;;;;;;;360439;147;863850;-60
2022/06/07 04:45:22;;;;;;;10.23;6.16;;;;;;;;;;358932;146;856303;-59
2022/06/07 04:46:24;;;;;;;8.79;5.57;;;;;;;;;;361717;148;856190;-59
2022/06/07 04:47:25;;;;;;;9.33;5.88;;;;;;;;;;359339;147;856916;-58
2022/06/07 04:48:27;;;;;;;7.70;5.15;;;;;;;;;;359718;147;856310;-56
2022/06/07 04:49:29;;;;;;;7.77;5.21;;;;;;;;;;357967;147;856492;-59
2022/06/07 04:50:31;;;;;;;7.98;5.25;;;;;;;;;;361533;147;856848;-59
2022/06/07 04:51:33;;;;;;;10.79;5.56;;;;;;;;;;359484;148;856399;-56
2022/06/07 04:52:35;;;;;;;8.45;5.61;;;;;;;;;;360707;147;856344;-58
2022/06/07 04:53:36;;;;;;;8.00;5.13;;;;;;;;;;360425;148;856425;-58
2022/06/07 04:54:38;;;;;;;11.51;5.14;;;;;;;;;;360173;148;856249;-59
2022/06/07 04:55:39;;;;;;;7.36;4.69;;;;;;;;;;359452;148;856206;-62
2022/06/07 04:56:41;;;;;;;8.82;5.48;;;;;;;;;;359879;148;856772;-57
2022/06/07 04:57:43;;;;;;;8.18;4.94;;;;;;;;;;359335;148;856858;-59
2022/06/07 04:58:44;;;;;;;9.79;5.51;;;;;;;;;;358675;147;858930;-58
2022/06/07 04:59:46;;;;;;;7.41;5.23;;;;;;;;;;359084;148;866686;-58
2022/06/07 05:00:48;;;;;;;9.74;6.14;;;;;;;;;;359031;147;859390;-57
2022/06/07 05:01:50;;;;;;;7.85;5.35;;;;;;;;;;360156;148;864978;-58
2022/06/07 05:02:52;;;;;;;6.50;4.69;;;;;;;;;;357356;147;857300;-57
2022/06/07 05:03:53;;;;;;;7.40;5.18;;;;;;;;;;358825;148;856245;-57
2022/06/07 05:04:55;;;;;;;8.79;5.34;;;;;;;;;;357968;148;856740;-57
2022/06/07 05:05:56;;;;;;;8.66;5.30;;;;;;;;;;359417;147;856430;-56
2022/06/07 05:06:58;;;;;;;13.39;5.11;;;;;;;;;;357750;148;856203;-57
2022/06/07 05:08:00;;;;;;;10.64;5.46;;;;;;;;;;361610;148;863738;-55
2022/06/07 05:09:03;;;;;;;7.05;4.95;;;;;;;;;;358369;147;858222;-56
2022/06/07 05:10:06;;;;;;;12.38;5.34;;;;;;;;;;357506;147;857419;-57
2022/06/07 05:11:07;;;;;;;8.42;4.91;;;;;;;;;;360323;148;864171;-56
2022/06/07 05:12:09;;;;;;;8.66;4.74;;;;;;;;;;358083;148;859560;-55
2022/06/07 05:13:11;;;;;;;5.66;4.43;;;;;;;;;;360548;148;867037;-55
2022/06/07 05:14:12;;;;;;;7.92;4.74;;;;;;;;;;360373;148;866687;-55
2022/06/07 05:15:14;;;;;;;9.17;4.98;;;;;;;;;;358468;148;856501;-56
2022/06/07 05:16:16;;;;;;;7.53;4.23;;;;;;;;;;359370;148;857355;-56
2022/06/07 05:17:17;;;;;;;8.12;4.50;;;;;;;;;;357892;148;856419;-57
2022/06/07 05:18:19;;;;;;;7.76;4.64;;;;;;;;;;359584;148;858755;-57
2022/06/07 05:19:20;;;;;;;7.59;4.46;;;;;;;;;;359642;148;857768;-57
2022/06/07 05:20:22;;;;;;;9.44;4.45;;;;;;;;;;357996;147;857300;-57
2022/06/07 05:21:24;;;;;;;7.22;4.86;;;;;;;;;;359955;148;864036;-56
2022/06/07 05:22:27;;;;;;;8.46;4.60;;;;;;;;;;359137;148;857280;-57
2022/06/07 05:23:28;;;;;;;5.26;3.95;;;;;;;;;;359109;148;856393;-56
2022/06/07 05:24:30;;;;;;;7.09;4.22;;;;;;;;;;360159;148;857345;-56
2022/06/07 05:25:31;;;;;;;6.55;4.20;;;;;;;;;;360356;148;858033;-56
2022/06/07 05:26:37;;;;;;;6.77;4.45;;;;;;;;;;360568;148;858030;-55
2022/06/07 05:27:42;;;;;;;7.19;4.39;;;;;;;;;;361016;147;864765;-55
2022/06/07 05:28:44;;;;;;;6.80;4.37;;;;;;;;;;361952;148;857762;-55
2022/06/07 05:29:53;;;;;;;6.19;4.16;;;;;;;;;;361931;148;857779;-56
2022/06/07 05:30:55;;;;;;;7.05;4.48;;;;;;;;;;361360;148;857310;-56
2022/06/07 05:31:56;;;;;;;6.52;4.35;;;;;;;;;;359284;148;857313;-58
2022/06/07 05:32:58;;;;;;;5.17;3.78;;;;;;;;;;357462;148;858653;-58
2022/06/07 05:34:00;;;;;;;5.70;3.84;;;;;;;;;;359582;148;865198;-58
2022/06/07 05:35:03;;;;;;;9.04;4.35;;;;;;;;;;359785;148;865238;-58
2022/06/07 05:36:06;;;;;;;8.68;4.22;;;;;;;;;;360980;148;859070;-59
2022/06/07 05:37:10;;;;;;;5.56;3.77;;;;;;;;;;362131;148;859735;-58
2022/06/07 05:38:11;;;;;;;6.29;4.13;;;;;;;;;;359675;148;859385;-57
2022/06/07 05:39:22;;;;;;;5.43;4.24;;;;;;;;;;358665;147;857215;-57
2022/06/07 05:40:24;;;;;;;8.68;4.08;;;;;;;;;;357707;148;857653;-56
2022/06/07 05:41:28;;;;;;;5.65;3.72;;;;;;;;;;360404;148;856442;-57
2022/06/07 05:42:30;;;;;;;5.96;3.92;;;;;;;;;;362675;148;857175;-57
2022/06/07 05:43:31;;;;;;;4.27;3.39;;;;;;;;;;359800;148;864758;-56
2022/06/07 05:44:34;;;;;;;5.28;3.11;;;;;;;;;;357775;148;857555;-57
2022/06/07 05:45:35;;;;;;;6.33;3.05;;;;;;;;;;358694;147;864694;-57
2022/06/07 05:46:37;;;;;;;7.66;2.86;;;;;;;;;;362218;147;858792;-57
2022/06/07 05:47:38;;;;;;;4.28;2.82;;;;;;;;;;359009;148;864789;-56
2022/06/07 05:48:40;;;;;;;4.32;2.34;;;;;;;;;;360960;147;857221;-58
2022/06/07 05:49:41;;;;;;;4.04;2.17;;;;;;;;;;362108;147;857295;-57
2022/06/07 05:50:50;;;;;;;4.86;2.32;;;;;;;;;;360706;148;859345;-57
2022/06/07 05:51:49;;;;;;;4.26;1.66;;;;;;;;;;358753;148;857307;-56
2022/06/07 05:52:51;;;;;;;1.86;1.61;;;;;;;;;;360456;148;857665;-55
2022/06/07 05:53:53;;;;;;;4.39;2.23;;;;;;;;;;360789;148;860131;-60
2022/06/07 05:54:57;;;;;;;5.25;1.69;;;;;;;;;;362112;148;858112;-58
2022/06/07 05:56:06;;;;;;;3.83;1.81;;;;;;;;;;362329;148;857324;-58
2022/06/07 05:57:08;;;;;;;7.44;2.32;;;;;;;;;;360130;147;857799;-56
2022/06/07 05:58:10;;;;;;;2.29;1.73;;;;;;;;;;362665;147;858291;-55
2022/06/07 05:59:11;;;;;;;4.69;2.31;;;;;;;;;;361425;147;859794;-57
2022/06/07 06:00:14;;;;;;;3.74;1.64;;;;;;;;;;362059;147;857375;-57
2022/06/07 06:01:16;;;;;;;3.43;2.05;;;;;;;;;;360589;147;864852;-57
2022/06/07 06:02:17;;;;;;;4.46;1.90;;;;;;;;;;360182;148;865336;-57
2022/06/07 06:03:19;;;;;;;4.39;1.80;;;;;;;;;;361092;148;857876;-56
2022/06/07 06:04:21;;;;;;;4.44;1.87;;;;;;;;;;360221;148;858863;-56
2022/06/07 06:05:22;;;;;;;2.61;1.97;;;;;;;;;;360010;148;856574;-57
2022/06/07 06:06:24;;;;;;;3.80;2.07;;;;;;;;;;359676;148;857900;-54
2022/06/07 06:07:26;;;;;;;3.75;1.93;;;;;;;;;;359167;148;860300;-56
2022/06/07 06:11:09;;;;;;;3.24;2.00;;;;;;;;;;358952;148;857502;-57
2022/06/07 06:12:11;;;;;;;1.79;1.47;;;;;;;;;;361640;147;860203;-55
2022/06/07 06:13:12;;;;;;;4.79;2.04;;;;;;;;;;360436;148;857272;-59
2022/06/07 06:14:14;;;;;;;3.23;1.84;;;;;;;;;;359116;148;857734;-58
2022/06/07 06:15:16;;;;;;;9.53;1.96;;;;;;;;;;361622;147;858012;-58
2022/06/07 06:16:22;;;;;;;4.25;1.71;;;;;;;;;;360673;148;856548;-57
2022/06/07 06:17:24;;;;;;;3.71;1.77;;;;;;;;;;358884;147;858729;-59
2022/06/07 06:18:26;;;;;;;8.02;1.91;;;;;;;;;;358655;147;856640;-59
2022/06/07 06:19:27;;;;;;;5.40;2.07;;;;;;;;;;361644;148;856369;-58